sensor_id;sensor_type;location;lat;lon;timestamp;pressure;altitude;pressure_sealevel;temperature;humidity
13011;BME280;6786;57.632;11.962;2022-12-07T00:01:05;100396.09;;;19.77;35.11
13011;BME280;6786;57.632;11.962;2022-12-07T00:03:34;100395.38;;;19.75;35.16
13011;BME280;6786;57.632;11.962;2022-12-07T00:06:04;100390.72;;;19.77;35.20
13011;BME280;6786;57.632;11.962;2022-12-07T00:08:33;100393.41;;;19.77;35.25
13011;BME280;6786;57.632;11.962;2022-12-07T00:11:03;100387.03;;;19.78;35.18
13011;BME280;6786;57.632;11.962;2022-12-07T00:13:32;100384.66;;;19.75;35.26
13011;BME280;6786;57.632;11.962;2022-12-07T00:16:01;100393.41;;;19.77;35.28
13011;BME280;6786;57.632;11.962;2022-12-07T00:18:30;100383.50;;;19.78;35.14
13011;BME280;6786;57.632;11.962;2022-12-07T00:21:01;100387.03;;;19.78;35.27
13011;BME280;6786;57.632;11.962;2022-12-07T00:23:31;100369.13;;;19.79;35.05
13011;BME280;6786;57.632;11.962;2022-12-07T00:26:03;100375.31;;;19.79;35.13
13011;BME280;6786;57.632;11.962;2022-12-07T00:28:31;100376.31;;;19.78;35.16
13011;BME280;6786;57.632;11.962;2022-12-07T00:31:02;100375.31;;;19.79;35.25
13011;BME280;6786;57.632;11.962;2022-12-07T00:33:30;100366.59;;;19.77;35.18
13011;BME280;6786;57.632;11.962;2022-12-07T00:35:58;100379.00;;;19.78;35.16
13011;BME280;6786;57.632;11.962;2022-12-07T00:38:28;100385.22;;;19.79;35.21
13011;BME280;6786;57.632;11.962;2022-12-07T00:40:59;100373.63;;;19.78;35.12
13011;BME280;6786;57.632;11.962;2022-12-07T00:43:28;100370.25;;;19.76;35.18
13011;BME280;6786;57.632;11.962;2022-12-07T00:45:57;100373.91;;;19.75;35.27
13011;BME280;6786;57.632;11.962;2022-12-07T00:48:25;100367.72;;;19.75;35.11
13011;BME280;6786;57.632;11.962;2022-12-07T00:50:53;100356.16;;;19.74;35.13
13011;BME280;6786;57.632;11.962;2022-12-07T00:53:21;100373.91;;;19.75;35.19
13011;BME280;6786;57.632;11.962;2022-12-07T00:55:50;100338.75;;;19.51;35.15
13011;BME280;6786;57.632;11.962;2022-12-07T00:58:20;100368.56;;;19.75;35.19
13011;BME280;6786;57.632;11.962;2022-12-07T01:00:48;100359.66;;;19.75;35.22
13011;BME280;6786;57.632;11.962;2022-12-07T01:03:17;100359.50;;;19.76;35.10
13011;BME280;6786;57.632;11.962;2022-12-07T01:05:52;100317.00;;;19.54;35.19
13011;BME280;6786;57.632;11.962;2022-12-07T01:08:21;100348.78;;;19.76;35.19
13011;BME280;6786;57.632;11.962;2022-12-07T01:10:56;100347.97;;;19.76;35.27
13011;BME280;6786;57.632;11.962;2022-12-07T01:13:26;100347.09;;;19.75;35.13
13011;BME280;6786;57.632;11.962;2022-12-07T01:15:57;100343.72;;;19.73;35.14
13011;BME280;6786;57.632;11.962;2022-12-07T01:18:26;100340.06;;;19.74;35.25
13011;BME280;6786;57.632;11.962;2022-12-07T01:20:59;100290.78;;;19.48;35.08
13011;BME280;6786;57.632;11.962;2022-12-07T01:23:27;100331.03;;;19.75;35.19
13011;BME280;6786;57.632;11.962;2022-12-07T01:25:56;100336.38;;;19.75;35.30
13011;BME280;6786;57.632;11.962;2022-12-07T01:28:26;100334.41;;;19.77;35.13
13011;BME280;6786;57.632;11.962;2022-12-07T01:30:56;100333.56;;;19.77;35.24
13011;BME280;6786;57.632;11.962;2022-12-07T01:33:24;100321.16;;;19.76;35.28
13011;BME280;6786;57.632;11.962;2022-12-07T01:35:52;100327.34;;;19.76;35.15
13011;BME280;6786;57.632;11.962;2022-12-07T01:38:20;100319.28;;;19.76;35.30
13011;BME280;6786;57.632;11.962;2022-12-07T01:40:54;100323.69;;;19.77;35.12
13011;BME280;6786;57.632;11.962;2022-12-07T01:43:23;100318.31;;;19.77;35.17
13011;BME280;6786;57.632;11.962;2022-12-07T01:45:54;100313.78;;;19.78;35.25
13011;BME280;6786;57.632;11.962;2022-12-07T01:48:26;100314.63;;;19.78;35.32
13011;BME280;6786;57.632;11.962;2022-12-07T01:50:56;100312.94;;;19.77;35.04
13011;BME280;6786;57.632;11.962;2022-12-07T01:53:29;100307.59;;;19.77;35.09
13011;BME280;6786;57.632;11.962;2022-12-07T01:55:58;100317.47;;;19.77;35.18
13011;BME280;6786;57.632;11.962;2022-12-07T01:58:28;100312.94;;;19.77;35.14
13011;BME280;6786;57.632;11.962;2022-12-07T02:00:57;100311.25;;;19.76;35.26
13011;BME280;6786;57.632;11.962;2022-12-07T02:03:31;100305.88;;;19.76;35.16
13011;BME280;6786;57.632;11.962;2022-12-07T02:06:01;100310.28;;;19.77;35.21
13011;BME280;6786;57.632;11.962;2022-12-07T02:08:29;100307.59;;;19.77;35.04
13011;BME280;6786;57.632;11.962;2022-12-07T02:10:58;100304.22;;;19.75;35.13
13011;BME280;6786;57.632;11.962;2022-12-07T02:13:29;100309.28;;;19.78;35.13
13011;BME280;6786;57.632;11.962;2022-12-07T02:16:08;100308.25;;;19.79;35.14
13011;BME280;6786;57.632;11.962;2022-12-07T02:18:48;100302.09;;;19.79;35.06
13011;BME280;6786;57.632;11.962;2022-12-07T02:21:25;100298.53;;;19.78;35.07
13011;BME280;6786;57.632;11.962;2022-12-07T02:24:14;100293.19;;;19.78;34.95
13011;BME280;6786;57.632;11.962;2022-12-07T02:29:55;100289.13;;;19.74;35.10
13011;BME280;6786;57.632;11.962;2022-12-07T02:32:32;100295.16;;;19.76;35.17
13011;BME280;6786;57.632;11.962;2022-12-07T02:35:05;100288.97;;;19.76;35.20
13011;BME280;6786;57.632;11.962;2022-12-07T02:37:38;100283.59;;;19.76;35.12
13011;BME280;6786;57.632;11.962;2022-12-07T02:40:13;100270.34;;;19.74;35.08
13011;BME280;6786;57.632;11.962;2022-12-07T02:42:44;100269.34;;;19.75;35.18
13011;BME280;6786;57.632;11.962;2022-12-07T02:45:20;100270.06;;;19.77;35.07
13011;BME280;6786;57.632;11.962;2022-12-07T02:47:51;100270.06;;;19.77;35.19
13011;BME280;6786;57.632;11.962;2022-12-07T02:50:21;100259.31;;;19.77;35.08
13011;BME280;6786;57.632;11.962;2022-12-07T02:52:49;100257.63;;;19.76;35.15
13011;BME280;6786;57.632;11.962;2022-12-07T02:55:19;100248.59;;;19.77;35.10
13011;BME280;6786;57.632;11.962;2022-12-07T02:58:05;100245.22;;;19.75;35.05
13011;BME280;6786;57.632;11.962;2022-12-07T03:00:49;100241.53;;;19.76;35.13
13011;BME280;6786;57.632;11.962;2022-12-07T03:03:20;100239.56;;;19.78;35.15
13011;BME280;6786;57.632;11.962;2022-12-07T03:06:03;100247.75;;;19.77;35.09
13011;BME280;6786;57.632;11.962;2022-12-07T03:08:43;100240.72;;;19.76;35.09
13011;BME280;6786;57.632;11.962;2022-12-07T03:11:14;100244.38;;;19.75;35.14
13011;BME280;6786;57.632;11.962;2022-12-07T03:13:50;100238.03;;;19.76;35.10
13011;BME280;6786;57.632;11.962;2022-12-07T03:16:26;100237.16;;;19.75;35.21
13011;BME280;6786;57.632;11.962;2022-12-07T03:18:58;100238.84;;;19.76;35.08
13011;BME280;6786;57.632;11.962;2022-12-07T03:21:32;100246.88;;;19.76;35.06
13011;BME280;6786;57.632;11.962;2022-12-07T03:24:04;100240.72;;;19.76;35.18
13011;BME280;6786;57.632;11.962;2022-12-07T03:26:36;100230.81;;;19.76;35.13
13011;BME280;6786;57.632;11.962;2022-12-07T03:29:09;100230.81;;;19.76;35.08
13011;BME280;6786;57.632;11.962;2022-12-07T03:31:42;100241.53;;;19.76;35.10
13011;BME280;6786;57.632;11.962;2022-12-07T03:34:16;100201.75;;;19.54;35.22
13011;BME280;6786;57.632;11.962;2022-12-07T03:36:51;100231.09;;;19.73;35.11
13011;BME280;6786;57.632;11.962;2022-12-07T03:39:24;100233.50;;;19.76;35.03
13011;BME280;6786;57.632;11.962;2022-12-07T03:41:54;100237.03;;;19.77;35.13
13011;BME280;6786;57.632;11.962;2022-12-07T03:44:24;100241.53;;;19.76;35.12
13011;BME280;6786;57.632;11.962;2022-12-07T03:47:01;100237.88;;;19.77;35.04
13011;BME280;6786;57.632;11.962;2022-12-07T03:49:34;100238.19;;;19.74;35.13
13011;BME280;6786;57.632;11.962;2022-12-07T03:52:11;100232.50;;;19.77;35.15
13011;BME280;6786;57.632;11.962;2022-12-07T03:54:45;100232.50;;;19.77;35.13
13011;BME280;6786;57.632;11.962;2022-12-07T03:57:16;100242.22;;;19.78;34.97
13011;BME280;6786;57.632;11.962;2022-12-07T03:59:45;100232.50;;;19.77;35.13
13011;BME280;6786;57.632;11.962;2022-12-07T04:02:16;100232.81;;;19.74;35.15
13011;BME280;6786;57.632;11.962;2022-12-07T04:04:44;100230.81;;;19.76;35.12
13011;BME280;6786;57.632;11.962;2022-12-07T04:07:13;100231.66;;;19.77;35.20
13011;BME280;6786;57.632;11.962;2022-12-07T04:09:41;100230.81;;;19.76;35.04
13011;BME280;6786;57.632;11.962;2022-12-07T04:12:09;100229.84;;;19.77;35.23
13011;BME280;6786;57.632;11.962;2022-12-07T04:14:37;100225.44;;;19.76;35.29
13011;BME280;6786;57.632;11.962;2022-12-07T04:17:05;100220.06;;;19.76;35.16
13011;BME280;6786;57.632;11.962;2022-12-07T04:19:35;100212.63;;;19.70;35.27
13011;BME280;6786;57.632;11.962;2022-12-07T04:22:04;100227.16;;;19.77;35.20
13011;BME280;6786;57.632;11.962;2022-12-07T04:24:32;100213.03;;;19.75;35.13
13011;BME280;6786;57.632;11.962;2022-12-07T04:27:01;100184.69;;;19.55;35.27
13011;BME280;6786;57.632;11.962;2022-12-07T04:29:29;100223.47;;;19.78;35.22
13011;BME280;6786;57.632;11.962;2022-12-07T04:31:56;100224.31;;;19.79;35.29
13011;BME280;6786;57.632;11.962;2022-12-07T04:34:24;100214.41;;;19.79;35.19
13011;BME280;6786;57.632;11.962;2022-12-07T04:36:54;100218.09;;;19.78;35.15
13011;BME280;6786;57.632;11.962;2022-12-07T04:39:23;100201.91;;;19.70;35.12
13011;BME280;6786;57.632;11.962;2022-12-07T04:41:52;100221.78;;;19.77;35.22
13011;BME280;6786;57.632;11.962;2022-12-07T04:44:21;100216.44;;;19.77;35.08
13011;BME280;6786;57.632;11.962;2022-12-07T04:46:50;100221.78;;;19.77;35.20
13011;BME280;6786;57.632;11.962;2022-12-07T04:49:19;100219.09;;;19.77;35.19
13011;BME280;6786;57.632;11.962;2022-12-07T04:51:47;100216.44;;;19.77;35.20
13011;BME280;6786;57.632;11.962;2022-12-07T04:54:17;100216.44;;;19.77;35.17
13011;BME280;6786;57.632;11.962;2022-12-07T04:56:45;100205.69;;;19.77;35.04
13011;BME280;6786;57.632;11.962;2022-12-07T04:59:14;100178.19;;;19.58;35.05
13011;BME280;6786;57.632;11.962;2022-12-07T05:01:42;100156.50;;;19.51;35.34
13011;BME280;6786;57.632;11.962;2022-12-07T05:04:10;100204.00;;;19.76;35.21
13011;BME280;6786;57.632;11.962;2022-12-07T05:06:38;100198.63;;;19.76;35.18
13011;BME280;6786;57.632;11.962;2022-12-07T05:09:06;100205.69;;;19.77;35.23
13011;BME280;6786;57.632;11.962;2022-12-07T05:11:36;100200.34;;;19.77;35.26
13011;BME280;6786;57.632;11.962;2022-12-07T05:14:11;100194.97;;;19.77;35.19
13011;BME280;6786;57.632;11.962;2022-12-07T05:16:39;100184.56;;;19.74;35.15
13011;BME280;6786;57.632;11.962;2022-12-07T05:19:09;100196.94;;;19.75;35.13
13011;BME280;6786;57.632;11.962;2022-12-07T05:21:37;100195.94;;;19.76;35.13
13011;BME280;6786;57.632;11.962;2022-12-07T05:24:06;100201.31;;;19.76;35.06
13011;BME280;6786;57.632;11.962;2022-12-07T05:26:36;100159.56;;;19.56;35.11
13011;BME280;6786;57.632;11.962;2022-12-07T05:29:05;100184.25;;;19.77;35.15
13011;BME280;6786;57.632;11.962;2022-12-07T05:31:33;100183.41;;;19.77;35.13
13011;BME280;6786;57.632;11.962;2022-12-07T05:34:01;100184.25;;;19.77;35.16
13011;BME280;6786;57.632;11.962;2022-12-07T05:36:29;100183.41;;;19.77;35.21
13011;BME280;6786;57.632;11.962;2022-12-07T05:38:58;100179.19;;;19.74;35.08
13011;BME280;6786;57.632;11.962;2022-12-07T05:41:26;100184.25;;;19.77;35.08
13011;BME280;6786;57.632;11.962;2022-12-07T05:44:13;100181.72;;;19.76;35.15
13011;BME280;6786;57.632;11.962;2022-12-07T05:46:41;100185.22;;;19.76;35.06
13011;BME280;6786;57.632;11.962;2022-12-07T05:49:09;100170.75;;;19.69;35.01
13011;BME280;6786;57.632;11.962;2022-12-07T05:51:37;100182.53;;;19.76;35.07
13011;BME280;6786;57.632;11.962;2022-12-07T05:54:05;100182.69;;;19.75;35.15
13011;BME280;6786;57.632;11.962;2022-12-07T05:56:34;100175.50;;;19.75;35.08
13011;BME280;6786;57.632;11.962;2022-12-07T05:59:02;100184.25;;;19.77;35.12
13011;BME280;6786;57.632;11.962;2022-12-07T06:01:49;100182.53;;;19.76;35.18
13011;BME280;6786;57.632;11.962;2022-12-07T06:04:18;100188.75;;;19.77;35.13
13011;BME280;6786;57.632;11.962;2022-12-07T06:06:47;100184.91;;;19.79;34.97
13011;BME280;6786;57.632;11.962;2022-12-07T06:09:15;100179.25;;;19.82;35.38
13011;BME280;6786;57.632;11.962;2022-12-07T06:11:45;100186.16;;;19.85;35.33
13011;BME280;6786;57.632;11.962;2022-12-07T06:14:30;100177.97;;;19.86;35.40
13011;BME280;6786;57.632;11.962;2022-12-07T06:17:00;100183.03;;;19.89;35.33
13011;BME280;6786;57.632;11.962;2022-12-07T06:19:29;100184.69;;;19.90;35.37
13011;BME280;6786;57.632;11.962;2022-12-07T06:21:57;100181.00;;;19.91;35.39
13011;BME280;6786;57.632;11.962;2022-12-07T06:24:25;100184.41;;;19.93;35.42
13011;BME280;6786;57.632;11.962;2022-12-07T06:26:53;100184.41;;;19.93;35.35
13011;BME280;6786;57.632;11.962;2022-12-07T06:29:22;100170.59;;;19.88;35.53
13011;BME280;6786;57.632;11.962;2022-12-07T06:31:50;100183.22;;;19.96;35.41
13011;BME280;6786;57.632;11.962;2022-12-07T06:34:21;100187.63;;;19.97;35.56
13011;BME280;6786;57.632;11.962;2022-12-07T06:36:50;100188.44;;;19.97;35.48
13011;BME280;6786;57.632;11.962;2022-12-07T06:39:21;100156.28;;;19.80;35.47
13011;BME280;6786;57.632;11.962;2022-12-07T06:41:50;100182.09;;;19.98;35.44
13011;BME280;6786;57.632;11.962;2022-12-07T06:44:19;100180.25;;;19.99;35.37
13011;BME280;6786;57.632;11.962;2022-12-07T06:46:48;100189.16;;;19.99;35.55
13011;BME280;6786;57.632;11.962;2022-12-07T06:49:16;100185.47;;;20.00;35.53
13011;BME280;6786;57.632;11.962;2022-12-07T06:51:46;100187.16;;;20.01;35.47
13011;BME280;6786;57.632;11.962;2022-12-07T06:54:15;100184.47;;;20.01;35.49
13011;BME280;6786;57.632;11.962;2022-12-07T06:56:43;100192.53;;;20.01;35.46
13011;BME280;6786;57.632;11.962;2022-12-07T06:59:11;100199.56;;;20.02;35.45
13011;BME280;6786;57.632;11.962;2022-12-07T07:01:39;100193.34;;;20.02;35.60
13011;BME280;6786;57.632;11.962;2022-12-07T07:04:07;100192.53;;;20.01;35.62
13011;BME280;6786;57.632;11.962;2022-12-07T07:06:35;100195.72;;;20.05;35.61
13011;BME280;6786;57.632;11.962;2022-12-07T07:09:05;100187.84;;;20.03;35.57
13011;BME280;6786;57.632;11.962;2022-12-07T07:11:33;100193.91;;;20.05;35.49
13011;BME280;6786;57.632;11.962;2022-12-07T07:14:01;100181.81;;;20.01;35.64
13011;BME280;6786;57.632;11.962;2022-12-07T07:16:30;100195.56;;;20.06;35.47
13011;BME280;6786;57.632;11.962;2022-12-07T07:18:58;100191.88;;;20.07;35.56
13011;BME280;6786;57.632;11.962;2022-12-07T07:21:26;100194.75;;;20.06;35.54
13011;BME280;6786;57.632;11.962;2022-12-07T07:23:54;100200.94;;;20.06;35.67
13011;BME280;6786;57.632;11.962;2022-12-07T07:26:25;100200.94;;;20.06;35.51
13011;BME280;6786;57.632;11.962;2022-12-07T07:28:53;100209.84;;;20.07;35.44
13011;BME280;6786;57.632;11.962;2022-12-07T07:31:21;100200.28;;;20.04;35.62
13011;BME280;6786;57.632;11.962;2022-12-07T07:33:49;100197.25;;;20.07;35.45
13011;BME280;6786;57.632;11.962;2022-12-07T07:36:17;100194.56;;;20.07;35.51
13011;BME280;6786;57.632;11.962;2022-12-07T07:38:45;100200.94;;;20.06;35.52
13011;BME280;6786;57.632;11.962;2022-12-07T07:41:13;100200.94;;;20.06;35.49
13011;BME280;6786;57.632;11.962;2022-12-07T07:43:42;100207.97;;;20.07;35.50
13011;BME280;6786;57.632;11.962;2022-12-07T07:46:10;100207.97;;;20.07;35.51
13011;BME280;6786;57.632;11.962;2022-12-07T07:48:38;100207.97;;;20.07;35.50
13011;BME280;6786;57.632;11.962;2022-12-07T07:51:07;100219.56;;;20.08;35.44
13011;BME280;6786;57.632;11.962;2022-12-07T07:53:35;100214.19;;;20.08;35.48
13011;BME280;6786;57.632;11.962;2022-12-07T07:56:03;100208.84;;;20.08;35.49
13011;BME280;6786;57.632;11.962;2022-12-07T07:58:31;100214.03;;;20.09;35.50
13011;BME280;6786;57.632;11.962;2022-12-07T08:01:04;100214.03;;;20.09;35.49
13011;BME280;6786;57.632;11.962;2022-12-07T08:03:33;100212.22;;;20.10;35.55
13011;BME280;6786;57.632;11.962;2022-12-07T08:06:01;100223.75;;;20.10;35.50
13011;BME280;6786;57.632;11.962;2022-12-07T08:08:30;100226.44;;;20.10;35.58
13011;BME280;6786;57.632;11.962;2022-12-07T08:10:58;100223.75;;;20.10;35.45
13011;BME280;6786;57.632;11.962;2022-12-07T08:13:28;100223.75;;;20.10;35.62
13011;BME280;6786;57.632;11.962;2022-12-07T08:15:57;100215.72;;;20.10;35.45
13011;BME280;6786;57.632;11.962;2022-12-07T08:18:27;100217.56;;;20.10;35.56
13011;BME280;6786;57.632;11.962;2022-12-07T08:20:59;100214.75;;;20.11;35.54
13011;BME280;6786;57.632;11.962;2022-12-07T08:23:27;100211.22;;;20.11;35.58
13011;BME280;6786;57.632;11.962;2022-12-07T08:26:06;100165.53;;;19.85;35.57
13011;BME280;6786;57.632;11.962;2022-12-07T08:28:34;100208.53;;;20.11;35.55
13011;BME280;6786;57.632;11.962;2022-12-07T08:31:04;100202.31;;;20.10;35.59
13011;BME280;6786;57.632;11.962;2022-12-07T08:33:35;100215.72;;;20.10;35.50
13011;BME280;6786;57.632;11.962;2022-12-07T08:36:05;100210.34;;;20.10;35.56
13011;BME280;6786;57.632;11.962;2022-12-07T08:38:34;100220.09;;;20.11;35.46
13011;BME280;6786;57.632;11.962;2022-12-07T08:41:02;100213.88;;;20.11;35.49
13011;BME280;6786;57.632;11.962;2022-12-07T08:43:30;100218.41;;;20.10;35.56
13011;BME280;6786;57.632;11.962;2022-12-07T08:46:06;100208.53;;;20.11;35.61
13011;BME280;6786;57.632;11.962;2022-12-07T08:48:38;100221.09;;;20.10;35.60
13011;BME280;6786;57.632;11.962;2022-12-07T08:51:07;100207.97;;;20.07;35.55
13011;BME280;6786;57.632;11.962;2022-12-07T08:53:37;100223.75;;;20.10;35.63
13011;BME280;6786;57.632;11.962;2022-12-07T08:56:07;100222.94;;;20.10;35.63
13011;BME280;6786;57.632;11.962;2022-12-07T08:58:35;100218.72;;;20.07;35.65
13011;BME280;6786;57.632;11.962;2022-12-07T09:01:04;100199.19;;;19.97;35.58
13011;BME280;6786;57.632;11.962;2022-12-07T09:03:33;100227.47;;;20.09;35.63
13011;BME280;6786;57.632;11.962;2022-12-07T09:06:03;100225.78;;;20.08;35.71
13011;BME280;6786;57.632;11.962;2022-12-07T09:08:34;100222.09;;;20.09;35.64
13011;BME280;6786;57.632;11.962;2022-12-07T09:11:03;100210.28;;;20.02;35.54
13011;BME280;6786;57.632;11.962;2022-12-07T09:13:31;100220.41;;;20.08;35.62
13011;BME280;6786;57.632;11.962;2022-12-07T09:15:59;100216.72;;;20.09;35.61
13011;BME280;6786;57.632;11.962;2022-12-07T09:18:27;100226.44;;;20.10;35.62
13011;BME280;6786;57.632;11.962;2022-12-07T09:20:56;100218.41;;;20.10;35.71
13011;BME280;6786;57.632;11.962;2022-12-07T09:23:26;100223.75;;;20.10;35.59
13011;BME280;6786;57.632;11.962;2022-12-07T09:25:54;100227.47;;;20.09;35.74
13011;BME280;6786;57.632;11.962;2022-12-07T09:28:22;100218.41;;;20.10;35.59
13011;BME280;6786;57.632;11.962;2022-12-07T09:30:50;100217.03;;;20.06;35.68
13011;BME280;6786;57.632;11.962;2022-12-07T09:33:38;100220.41;;;20.08;35.56
13011;BME280;6786;57.632;11.962;2022-12-07T09:36:08;100143.38;;;19.66;35.65
13011;BME280;6786;57.632;11.962;2022-12-07T09:38:38;100211.66;;;20.06;35.64
13011;BME280;6786;57.632;11.962;2022-12-07T09:41:07;100215.03;;;20.08;35.49
13011;BME280;6786;57.632;11.962;2022-12-07T09:43:37;100208.97;;;20.06;35.59
13011;BME280;6786;57.632;11.962;2022-12-07T09:46:09;100213.03;;;20.10;35.57
13011;BME280;6786;57.632;11.962;2022-12-07T09:48:41;100207.66;;;20.10;35.38
13011;BME280;6786;57.632;11.962;2022-12-07T09:51:15;100213.03;;;20.10;35.54
13011;BME280;6786;57.632;11.962;2022-12-07T09:53:52;100213.03;;;20.10;35.65
13011;BME280;6786;57.632;11.962;2022-12-07T09:56:21;100192.53;;;20.01;35.67
13011;BME280;6786;57.632;11.962;2022-12-07T09:58:57;100213.03;;;20.10;35.58
13011;BME280;6786;57.632;11.962;2022-12-07T10:01:28;100213.03;;;20.10;35.50
13011;BME280;6786;57.632;11.962;2022-12-07T10:04:01;100209.38;;;20.11;35.57
13011;BME280;6786;57.632;11.962;2022-12-07T10:06:33;100201.31;;;20.11;35.45
13011;BME280;6786;57.632;11.962;2022-12-07T10:09:09;100208.53;;;20.11;35.52
13011;BME280;6786;57.632;11.962;2022-12-07T10:11:59;100202.31;;;20.10;35.50
13011;BME280;6786;57.632;11.962;2022-12-07T10:14:27;100192.22;;;20.04;35.66
13011;BME280;6786;57.632;11.962;2022-12-07T10:17:34;100201.47;;;20.10;35.47
13011;BME280;6786;57.632;11.962;2022-12-07T10:20:15;100206.00;;;20.09;35.61
13011;BME280;6786;57.632;11.962;2022-12-07T10:23:02;100208.66;;;20.09;35.54
13011;BME280;6786;57.632;11.962;2022-12-07T10:25:35;100209.69;;;20.08;35.52
13011;BME280;6786;57.632;11.962;2022-12-07T10:28:13;100203.47;;;20.08;35.46
13011;BME280;6786;57.632;11.962;2022-12-07T10:30:51;100202.59;;;20.07;35.49
13011;BME280;6786;57.632;11.962;2022-12-07T10:33:28;100213.34;;;20.07;35.59
13011;BME280;6786;57.632;11.962;2022-12-07T10:35:57;100210.66;;;20.07;35.50
13011;BME280;6786;57.632;11.962;2022-12-07T10:38:27;100207.97;;;20.07;35.56
13011;BME280;6786;57.632;11.962;2022-12-07T10:41:05;100203.47;;;20.08;35.37
13011;BME280;6786;57.632;11.962;2022-12-07T10:43:34;100202.59;;;20.07;35.49
13011;BME280;6786;57.632;11.962;2022-12-07T10:46:17;100206.16;;;20.08;35.42
13011;BME280;6786;57.632;11.962;2022-12-07T10:48:53;100198.09;;;20.08;35.47
13011;BME280;6786;57.632;11.962;2022-12-07T10:51:27;100198.94;;;20.08;35.61
13011;BME280;6786;57.632;11.962;2022-12-07T10:54:10;100201.63;;;20.08;35.45
13011;BME280;6786;57.632;11.962;2022-12-07T10:57:05;100197.94;;;20.09;35.56
13011;BME280;6786;57.632;11.962;2022-12-07T10:59:48;100188.22;;;20.08;35.57
13011;BME280;6786;57.632;11.962;2022-12-07T11:02:30;100173.78;;;20.09;35.48
13011;BME280;6786;57.632;11.962;2022-12-07T11:05:14;100175.47;;;20.10;35.60
13011;BME280;6786;57.632;11.962;2022-12-07T11:07:54;100184.53;;;20.09;35.42
13011;BME280;6786;57.632;11.962;2022-12-07T11:10:32;100171.13;;;20.09;35.57
13011;BME280;6786;57.632;11.962;2022-12-07T11:13:24;100191.56;;;20.10;35.46
13011;BME280;6786;57.632;11.962;2022-12-07T11:16:14;100191.56;;;20.10;35.49
13011;BME280;6786;57.632;11.962;2022-12-07T11:18:52;100183.53;;;20.10;35.65
13011;BME280;6786;57.632;11.962;2022-12-07T11:21:28;100184.53;;;20.09;35.54
13011;BME280;6786;57.632;11.962;2022-12-07T11:24:03;100172.13;;;20.08;35.51
13011;BME280;6786;57.632;11.962;2022-12-07T11:26:45;100172.78;;;20.10;35.50
13011;BME280;6786;57.632;11.962;2022-12-07T11:29:32;100185.38;;;20.10;35.38
13011;BME280;6786;57.632;11.962;2022-12-07T11:32:10;100179.16;;;20.09;35.46
13011;BME280;6786;57.632;11.962;2022-12-07T11:34:48;100189.03;;;20.09;35.39
13011;BME280;6786;57.632;11.962;2022-12-07T11:37:25;100146.09;;;19.83;35.32
13011;BME280;6786;57.632;11.962;2022-12-07T11:40:08;100180.16;;;20.08;35.55
13011;BME280;6786;57.632;11.962;2022-12-07T11:42:41;100152.28;;;19.84;35.50
13011;BME280;6786;57.632;11.962;2022-12-07T11:45:16;100182.00;;;20.08;35.70
13011;BME280;6786;57.632;11.962;2022-12-07T11:47:50;100186.50;;;20.07;35.55
13011;BME280;6786;57.632;11.962;2022-12-07T11:50:26;100164.00;;;20.00;35.60
13011;BME280;6786;57.632;11.962;2022-12-07T11:52:58;100182.84;;;20.08;35.55
13011;BME280;6786;57.632;11.962;2022-12-07T11:55:30;100177.50;;;20.08;35.52
13011;BME280;6786;57.632;11.962;2022-12-07T11:58:04;100178.16;;;20.10;35.58
13011;BME280;6786;57.632;11.962;2022-12-07T12:00:35;100180.84;;;20.10;35.38
13011;BME280;6786;57.632;11.962;2022-12-07T12:03:10;100175.47;;;20.10;35.53
13011;BME280;6786;57.632;11.962;2022-12-07T12:05:39;100173.78;;;20.09;35.46
13011;BME280;6786;57.632;11.962;2022-12-07T12:08:13;100171.81;;;20.11;35.48
13011;BME280;6786;57.632;11.962;2022-12-07T12:11:14;100178.00;;;20.12;35.39
13011;BME280;6786;57.632;11.962;2022-12-07T12:14:10;100173.78;;;20.09;35.46
13011;BME280;6786;57.632;11.962;2022-12-07T12:17:16;100170.09;;;20.10;35.35
13011;BME280;6786;57.632;11.962;2022-12-07T12:19:59;100175.47;;;20.10;35.30
13011;BME280;6786;57.632;11.962;2022-12-07T12:22:34;100170.09;;;20.10;35.51
13011;BME280;6786;57.632;11.962;2022-12-07T12:25:06;100172.13;;;20.08;35.30
13011;BME280;6786;57.632;11.962;2022-12-07T12:27:39;100177.50;;;20.08;35.51
13011;BME280;6786;57.632;11.962;2022-12-07T12:30:25;100173.78;;;20.09;35.26
13011;BME280;6786;57.632;11.962;2022-12-07T12:33:04;100167.59;;;20.09;35.26
13011;BME280;6786;57.632;11.962;2022-12-07T12:35:34;100169.28;;;20.10;35.29
13011;BME280;6786;57.632;11.962;2022-12-07T12:38:30;100166.75;;;20.08;35.14
13011;BME280;6786;57.632;11.962;2022-12-07T12:41:02;100168.44;;;20.09;35.35
13011;BME280;6786;57.632;11.962;2022-12-07T12:46:38;100161.41;;;20.08;35.45
13011;BME280;6786;57.632;11.962;2022-12-07T12:49:44;100159.38;;;20.10;35.23
13011;BME280;6786;57.632;11.962;2022-12-07T12:52:51;100163.75;;;20.11;35.27
13011;BME280;6786;57.632;11.962;2022-12-07T12:55:56;100165.59;;;20.11;35.34
13011;BME280;6786;57.632;11.962;2022-12-07T12:58:36;100157.69;;;20.09;35.44
13011;BME280;6786;57.632;11.962;2022-12-07T13:04:23;100154.00;;;20.10;35.53
13011;BME280;6786;57.632;11.962;2022-12-07T13:06:54;100153.72;;;20.13;35.51
13011;BME280;6786;57.632;11.962;2022-12-07T13:09:24;100148.38;;;20.13;35.34
13011;BME280;6786;57.632;11.962;2022-12-07T13:12:00;100148.66;;;20.10;35.29
13011;BME280;6786;57.632;11.962;2022-12-07T13:14:51;100158.00;;;20.06;35.43
13011;BME280;6786;57.632;11.962;2022-12-07T13:20:49;100168.22;;;20.03;35.25
13011;BME280;6786;57.632;11.962;2022-12-07T13:23:26;100165.69;;;20.01;35.55
13011;BME280;6786;57.632;11.962;2022-12-07T13:26:17;100156.97;;;19.99;35.29
13011;BME280;6786;57.632;11.962;2022-12-07T13:28:47;100162.31;;;19.99;35.52
13011;BME280;6786;57.632;11.962;2022-12-07T13:34:29;100170.53;;;19.98;35.41